Time;durP1;ratioP1;P1;durP2;ratioP2;P2;SDS_P1;SDS_P2;PMS_P1;PMS_P2;Temp;Humidity;BMP_temperature;BMP_pressure;BME280_temperature;BME280_humidity;BME280_pressure;Samples;Min_cycle;Max_cycle;Signal;HPM_P1;HPM_P2
2023/08/11 00:00:09;;;;;;;20.35;18.87;;;;;;;14.78;66.68;100828.63;1824425;78;25551;-50
2023/08/11 00:02:38;;;;;;;82.53;77.10;;;;;;;14.70;67.15;100826.19;1804328;78;26188;-49
2023/08/11 00:05:11;;;;;;;80.65;75.50;;;;;;;14.60;67.50;100817.00;1803519;78;25741;-49
2023/08/11 00:07:35;;;;;;;80.12;74.95;;;;;;;14.52;67.87;100822.11;1823174;78;25605;-49
2023/08/11 00:10:01;;;;;;;80.90;75.78;;;;;;;14.47;68.10;100820.09;1824424;78;25589;-49
2023/08/11 00:12:27;;;;;;;81.35;75.83;;;;;;;14.38;68.47;100814.09;1824388;78;25578;-49
2023/08/11 00:14:53;;;;;;;81.67;76.28;;;;;;;14.37;68.67;100817.95;1824370;78;29829;-49
2023/08/11 00:17:19;;;;;;;81.35;75.65;;;;;;;14.31;68.73;100819.80;1824324;78;25519;-50
2023/08/11 00:19:46;;;;;;;80.87;75.67;;;;;;;14.25;69.03;100821.07;1824206;78;25363;-48
2023/08/11 00:22:13;;;;;;;78.37;73.35;;;;;;;14.19;69.37;100817.16;1824348;78;25534;-50
2023/08/11 00:24:39;;;;;;;83.35;77.58;;;;;;;14.16;69.42;100818.36;1824402;78;25361;-49
2023/08/11 00:27:06;;;;;;;81.08;75.78;;;;;;;14.13;69.66;100819.81;1824395;78;28114;-49
2023/08/11 00:29:32;;;;;;;78.00;73.10;;;;;;;14.10;69.72;100817.72;1824281;78;25653;-50
2023/08/11 00:31:58;;;;;;;80.28;74.77;;;;;;;14.08;70.08;100814.53;1823827;78;25687;-49
2023/08/11 00:34:24;;;;;;;82.92;77.53;;;;;;;14.04;70.45;100808.69;1823711;78;27435;-49
2023/08/11 00:36:51;;;;;;;77.85;72.92;;;;;;;13.99;70.90;100810.99;1823829;78;25495;-48
2023/08/11 00:39:17;;;;;;;82.25;77.08;;;;;;;13.95;70.95;100811.40;1823721;78;27484;-49
2023/08/11 00:41:43;;;;;;;81.10;75.92;;;;;;;13.91;71.03;100813.14;1823649;78;27375;-48
2023/08/11 00:44:09;;;;;;;80.07;74.95;;;;;;;13.85;71.33;100810.35;1823773;78;25432;-49
2023/08/11 00:46:39;;;;;;;80.38;75.05;;;;;;;13.80;71.26;100810.73;1802946;78;25435;-49
2023/08/11 00:49:06;;;;;;;81.37;76.12;;;;;;;13.74;71.39;100813.37;1823795;78;25411;-49
2023/08/11 00:51:33;;;;;;;81.02;75.92;;;;;;;13.68;71.10;100807.05;1823798;78;27461;-49
2023/08/11 00:54:01;;;;;;;80.65;75.57;;;;;;;13.62;71.49;100805.84;1823698;78;25743;-49
2023/08/11 00:56:29;;;;;;;81.70;76.45;;;;;;;13.58;71.47;100810.86;1823769;78;25389;-49
2023/08/11 00:58:55;;;;;;;81.15;75.65;;;;;;;13.53;71.58;100813.16;1823688;78;25360;-50
2023/08/11 01:01:21;;;;;;;81.53;76.25;;;;;;;13.49;72.03;100812.20;1803362;78;25608;-49
2023/08/11 01:03:48;;;;;;;80.20;74.90;;;;;;;13.45;72.33;100805.23;1823736;78;27528;-49
2023/08/11 01:06:40;;;;;;;80.97;75.47;;;;;;;13.41;71.99;100805.61;1823642;78;27239;-49
2023/08/11 01:09:46;;;;;;;80.77;75.47;;;;;;;13.37;72.23;100808.73;1823883;78;25540;-48
2023/08/11 01:12:30;;;;;;;79.70;74.42;;;;;;;13.32;72.16;100806.72;1823769;78;25983;-52
2023/08/11 01:15:11;;;;;;;9.55;8.35;;;;;;;13.25;72.19;100806.58;1823862;78;25381;-49
2023/08/11 01:17:41;;;;;;;37.50;34.85;;;;;;;13.21;72.73;100808.33;1803137;78;28156;-49
2023/08/11 01:20:12;;;;;;;10.48;7.22;;;;;;;13.16;72.80;100803.58;1803020;78;25660;-48
2023/08/11 01:22:44;;;;;;;15.10;13.65;;;;;;;13.13;73.39;100805.56;1803411;78;25614;-48
2023/08/11 01:25:11;;;;;;;81.30;76.15;;;;;;;13.07;73.67;100801.62;1823753;78;25246;-48
2023/08/11 01:27:49;;;;;;;84.13;78.52;;;;;;;13.03;73.54;100804.73;1823762;78;25416;-47
2023/08/11 01:30:15;;;;;;;81.95;76.55;;;;;;;12.99;73.55;100797.52;1821431;78;28535;-48
2023/08/11 01:32:41;;;;;;;82.85;77.50;;;;;;;12.94;73.81;100800.36;1823598;78;25728;-48
2023/08/11 01:35:09;;;;;;;14.53;13.30;;;;;;;12.87;73.93;100792.13;1823727;78;25621;-51
2023/08/11 01:37:36;;;;;;;17.27;15.75;;;;;;;12.82;74.22;100799.05;1823851;78;25613;-49
2023/08/11 01:40:10;;;;;;;38.25;35.52;;;;;;;12.78;74.18;100793.98;1823749;78;25626;-48
2023/08/11 01:42:34;;;;;;;11.65;6.87;;;;;;;12.72;73.90;100787.11;1823253;78;28365;-48
2023/08/11 01:45:01;;;;;;;48.10;44.90;;;;;;;12.67;74.20;100789.95;1802814;78;25368;-47
2023/08/11 01:47:28;;;;;;;9.80;8.80;;;;;;;12.63;74.10;100788.95;1823739;78;25616;-47
2023/08/11 01:49:54;;;;;;;10.13;7.78;;;;;;;12.59;74.50;100794.20;1823640;78;25439;-47
2023/08/11 01:52:24;;;;;;;10.72;8.95;;;;;;;12.55;74.81;100793.23;1803063;78;25385;-46
2023/08/11 01:54:50;;;;;;;10.50;7.20;;;;;;;12.49;75.49;100793.89;1823909;78;28189;-48
2023/08/11 01:57:19;;;;;;;9.68;7.30;;;;;;;12.46;75.47;100793.71;1823640;78;25388;-48
2023/08/11 01:59:45;;;;;;;11.50;10.30;;;;;;;12.44;75.15;100789.95;1823824;78;25376;-47
2023/08/11 02:02:11;;;;;;;9.83;8.08;;;;;;;12.41;75.47;100790.59;1823714;78;25474;-48
2023/08/11 02:04:38;;;;;;;85.53;79.90;;;;;;;12.37;75.49;100788.80;1823689;78;25572;-47
2023/08/11 02:07:05;;;;;;;84.85;79.27;;;;;;;12.33;75.77;100794.04;1823689;78;27342;-48
2023/08/11 02:09:31;;;;;;;84.37;78.78;;;;;;;12.31;76.07;100797.62;1823548;78;25528;-47
2023/08/11 02:11:57;;;;;;;78.22;72.65;;;;;;;12.26;76.14;100797.18;1823682;78;25590;-46
2023/08/11 02:14:23;;;;;;;78.45;73.25;;;;;;;12.24;76.38;100795.34;1823617;78;25597;-47
2023/08/11 02:16:50;;;;;;;81.72;76.28;;;;;;;12.20;76.35;100800.31;1823725;78;25424;-46
2023/08/11 02:19:16;;;;;;;30.50;28.07;;;;;;;12.15;76.26;100798.52;1823635;78;27557;-47
2023/08/11 02:21:42;;;;;;;85.12;79.07;;;;;;;12.12;76.09;100800.48;1829643;78;25348;-47
2023/08/11 02:24:09;;;;;;;84.00;78.40;;;;;;;12.10;76.03;100801.34;1829763;78;25626;-46
2023/08/11 02:26:37;;;;;;;79.77;74.12;;;;;;;12.09;75.89;100805.19;1829760;77;25514;-48
2023/08/11 02:29:04;;;;;;;82.42;76.70;;;;;;;12.07;76.86;100799.24;1829771;78;25630;-47
2023/08/11 02:31:32;;;;;;;85.17;79.47;;;;;;;12.04;76.90;100799.31;1829750;78;27456;-47
2023/08/11 02:34:00;;;;;;;85.60;80.00;;;;;;;12.00;76.72;100804.30;1829680;78;25594;-47
2023/08/11 02:36:27;;;;;;;83.33;77.78;;;;;;;11.96;76.84;100805.46;1829772;78;25545;-47
2023/08/11 02:38:55;;;;;;;83.05;77.45;;;;;;;11.93;77.22;100799.29;1829688;78;25590;-47
2023/08/11 02:41:21;;;;;;;37.15;34.10;;;;;;;11.88;76.76;100802.09;1829796;77;25384;-47
2023/08/11 02:43:47;;;;;;;65.75;61.05;;;;;;;11.86;76.89;100807.02;1829780;78;27521;-47
2023/08/11 02:46:13;;;;;;;84.13;78.25;;;;;;;11.81;77.22;100804.42;1829692;77;25517;-46
2023/08/11 02:48:39;;;;;;;85.80;79.97;;;;;;;11.75;77.14;100803.17;1829726;77;25587;-47
2023/08/11 02:51:06;;;;;;;44.53;41.42;;;;;;;11.70;77.04;100804.64;1829781;77;25442;-47
2023/08/11 02:53:33;;;;;;;85.32;79.55;;;;;;;11.67;77.33;100805.23;1829834;78;25592;-47
2023/08/11 02:56:04;;;;;;;83.05;77.50;;;;;;;11.65;77.32;100808.81;1829774;78;27561;-48
2023/08/11 02:58:28;;;;;;;83.50;77.40;;;;;;;11.61;77.04;100808.36;1829596;77;25434;-47
2023/08/11 03:00:56;;;;;;;82.97;77.37;;;;;;;11.59;77.56;100812.72;1813754;78;25408;-47
2023/08/11 03:03:23;;;;;;;84.25;78.35;;;;;;;11.56;77.30;100818.74;1829711;78;27368;-47
2023/08/11 03:05:50;;;;;;;85.92;80.10;;;;;;;11.55;77.59;100816.59;1829728;78;25359;-49
2023/08/11 03:08:16;;;;;;;86.35;80.28;;;;;;;11.52;77.52;100813.69;1829776;78;27574;-50
2023/08/11 03:10:42;;;;;;;87.20;80.72;;;;;;;11.49;78.04;100817.00;1829657;78;27317;-48
2023/08/11 03:13:08;;;;;;;51.37;47.55;;;;;;;11.45;78.00;100822.78;1829705;78;25371;-47
2023/08/11 03:15:35;;;;;;;82.40;77.00;;;;;;;11.40;77.60;100824.47;1829723;78;25779;-50
2023/08/11 03:18:03;;;;;;;84.77;78.95;;;;;;;11.36;77.70;100817.27;1829751;77;25616;-48
2023/08/11 03:20:29;;;;;;;86.20;80.15;;;;;;;11.35;78.18;100819.71;1827329;77;27460;-47
2023/08/11 03:22:58;;;;;;;86.05;80.03;;;;;;;11.32;77.88;100827.91;1823571;78;25375;-47
2023/08/11 03:25:26;;;;;;;83.55;77.82;;;;;;;11.31;77.97;100825.49;1803046;78;25561;-51
2023/08/11 03:27:52;;;;;;;19.80;16.00;;;;;;;11.29;77.93;100830.38;1823622;78;25620;-48
2023/08/11 03:30:19;;;;;;;87.37;81.08;;;;;;;11.27;78.45;100830.71;1823659;78;25352;-48
2023/08/11 03:32:45;;;;;;;85.77;79.95;;;;;;;11.24;78.02;100832.66;1823644;78;27468;-48
2023/08/11 03:35:11;;;;;;;84.70;78.80;;;;;;;11.21;77.93;100830.55;1823523;78;25793;-47
2023/08/11 03:37:38;;;;;;;89.00;83.12;;;;;;;11.19;78.14;100829.48;1823584;78;25185;-47
2023/08/11 03:40:12;;;;;;;69.05;63.98;;;;;;;11.16;78.34;100829.28;1823574;78;25525;-47
2023/08/11 03:42:35;;;;;;;85.92;80.05;;;;;;;11.16;78.73;100823.87;1820230;78;25460;-48
2023/08/11 03:45:01;;;;;;;84.60;78.92;;;;;;;11.14;78.82;100824.73;1823600;78;27455;-47
2023/08/11 03:47:28;;;;;;;87.15;81.17;;;;;;;11.14;78.75;100827.44;1823542;78;25377;-50
2023/08/11 03:49:54;;;;;;;87.50;81.57;;;;;;;11.14;78.84;100824.73;1823620;78;25471;-47
2023/08/11 03:52:20;;;;;;;86.85;80.65;;;;;;;11.11;78.59;100826.11;1823554;78;25616;-47
2023/08/11 03:54:46;;;;;;;86.70;80.40;;;;;;;11.11;78.83;100829.38;1823596;78;25591;-47
2023/08/11 03:57:12;;;;;;;87.22;81.12;;;;;;;11.12;79.36;100835.86;1823568;78;27559;-50
2023/08/11 03:59:39;;;;;;;89.40;83.00;;;;;;;11.11;79.80;100836.94;1823513;78;25585;-48
2023/08/11 04:02:06;;;;;;;27.90;25.05;;;;;;;11.12;79.69;100838.56;1823671;78;25365;-50
2023/08/11 04:04:32;;;;;;;91.45;84.83;;;;;;;11.15;79.90;100830.37;1823678;78;25608;-48
2023/08/11 04:06:59;;;;;;;84.67;78.83;;;;;;;11.16;80.11;100832.00;1823762;78;25605;-48
2023/08/11 04:09:25;;;;;;;87.08;80.92;;;;;;;11.15;80.67;100828.49;1823866;78;27532;-47
2023/08/11 04:11:51;;;;;;;48.45;44.75;;;;;;;11.17;80.87;100833.05;1823770;78;25380;-48
2023/08/11 04:14:17;;;;;;;87.15;80.97;;;;;;;11.23;81.08;100831.60;1823738;78;25497;-51
2023/08/11 04:16:43;;;;;;;89.65;83.37;;;;;;;11.27;81.33;100842.90;1823817;78;25649;-47
2023/08/11 04:19:10;;;;;;;11.53;9.23;;;;;;;11.30;81.49;100839.56;1823757;78;25514;-48
2023/08/11 04:21:39;;;;;;;88.75;82.25;;;;;;;11.35;81.66;100835.97;1823721;78;27469;-49
2023/08/11 04:24:06;;;;;;;83.35;77.47;;;;;;;11.37;81.71;100836.45;1823752;78;25566;-50
2023/08/11 04:26:34;;;;;;;87.08;80.85;;;;;;;11.40;81.95;100832.59;1823702;78;25577;-46
2023/08/11 04:29:03;;;;;;;86.85;80.75;;;;;;;11.44;82.04;100830.11;1823738;78;25628;-48
2023/08/11 04:31:31;;;;;;;87.20;81.22;;;;;;;11.51;82.07;100831.03;1823756;78;25519;-47
2023/08/11 04:33:57;;;;;;;86.53;80.00;;;;;;;11.54;82.13;100829.08;1823721;78;27449;-48
2023/08/11 04:36:23;;;;;;;87.50;81.20;;;;;;;11.57;82.70;100827.92;1823764;78;27337;-47
2023/08/11 04:38:49;;;;;;;86.95;81.02;;;;;;;11.58;82.93;100821.41;1823709;78;25381;-50
2023/08/11 04:41:15;;;;;;;87.72;81.35;;;;;;;11.64;83.05;100822.09;1823764;78;25600;-47
2023/08/11 04:43:41;;;;;;;92.22;85.42;;;;;;;11.70;83.42;100830.38;1823763;78;25582;-48
2023/08/11 04:46:07;;;;;;;85.92;79.92;;;;;;;11.77;83.75;100835.39;1823820;78;27508;-47
2023/08/11 04:48:33;;;;;;;48.42;44.40;;;;;;;11.82;83.95;100836.64;1823717;78;25873;-47
2023/08/11 04:51:00;;;;;;;54.13;49.93;;;;;;;11.91;84.32;100834.83;1823761;78;25561;-48
2023/08/11 04:53:26;;;;;;;63.35;58.87;;;;;;;11.96;84.50;100841.50;1823711;78;25525;-50
2023/08/11 04:55:52;;;;;;;83.22;77.25;;;;;;;12.09;84.72;100852.64;1823766;78;25384;-48
2023/08/11 04:58:19;;;;;;;45.55;42.30;;;;;;;12.17;84.71;100842.96;1823713;78;26635;-48
2023/08/11 05:00:45;;;;;;;39.92;37.33;;;;;;;12.41;85.46;100838.60;1823620;78;25737;-47
2023/08/11 05:03:12;;;;;;;83.62;77.72;;;;;;;12.41;85.46;100838.60;1823673;78;25533;-47
2023/08/11 05:05:38;;;;;;;91.22;84.87;;;;;;;12.54;85.93;100846.45;1823654;78;25534;-46
2023/08/11 05:08:05;;;;;;;45.63;42.50;;;;;;;12.66;85.85;100850.19;1823733;78;25376;-49
2023/08/11 05:10:31;;;;;;;85.28;79.17;;;;;;;12.81;85.94;100853.09;1823728;78;27466;-47
2023/08/11 05:12:58;;;;;;;88.90;82.70;;;;;;;12.91;85.16;100853.39;1823614;78;25541;-46
2023/08/11 05:15:25;;;;;;;88.52;82.33;;;;;;;13.01;85.28;100850.41;1823726;78;25361;-47
2023/08/11 05:17:51;;;;;;;86.28;80.28;;;;;;;13.13;84.82;100856.63;1823601;78;25457;-47
2023/08/11 05:20:17;;;;;;;43.90;40.50;;;;;;;13.26;85.37;100858.45;1823658;78;25447;-46
2023/08/11 05:22:44;;;;;;;85.22;79.22;;;;;;;13.42;85.44;100862.13;1829856;78;27483;-46
2023/08/11 05:25:11;;;;;;;18.00;16.82;;;;;;;13.55;85.24;100861.77;1829723;77;25539;-47
2023/08/11 05:27:38;;;;;;;89.35;83.27;;;;;;;13.67;84.99;100863.31;1829767;77;25522;-50
2023/08/11 05:30:08;;;;;;;15.90;10.75;;;;;;;13.83;84.88;100867.77;1829730;78;25597;-46
2023/08/11 05:32:35;;;;;;;15.70;11.30;;;;;;;14.00;84.63;100870.51;1829979;78;25406;-46
2023/08/11 05:35:02;;;;;;;19.52;17.60;;;;;;;14.14;84.12;100862.20;1829757;77;27548;-47
2023/08/11 05:37:30;;;;;;;57.00;52.67;;;;;;;14.27;84.25;100863.72;1829880;77;25770;-47
2023/08/11 05:39:57;;;;;;;83.72;77.95;;;;;;;14.42;84.24;100867.34;1829768;77;25468;-47
2023/08/11 05:42:25;;;;;;;83.05;77.50;;;;;;;14.58;83.91;100867.65;1829710;78;25584;-47
2023/08/11 05:44:52;;;;;;;13.10;12.15;;;;;;;14.69;83.03;100857.25;1829764;78;25421;-47
2023/08/11 05:47:20;;;;;;;81.75;76.07;;;;;;;14.85;82.80;100868.45;1829808;78;27384;-49
2023/08/11 05:49:47;;;;;;;17.20;16.07;;;;;;;14.96;82.57;100866.17;1828565;77;25554;-47
2023/08/11 05:52:15;;;;;;;59.85;55.30;;;;;;;15.12;82.52;100867.25;1828362;77;25840;-48
2023/08/11 05:54:42;;;;;;;28.85;26.15;;;;;;;15.26;82.44;100869.77;1828328;78;25521;-48
2023/08/11 05:57:09;;;;;;;79.62;74.45;;;;;;;15.39;81.44;100865.21;1828217;78;25572;-48
2023/08/11 05:59:36;;;;;;;87.42;81.42;;;;;;;15.52;81.60;100858.74;1828252;78;27364;-50
2023/08/11 06:02:04;;;;;;;79.72;74.22;;;;;;;15.69;81.42;100866.03;1828205;77;25563;-50
2023/08/11 06:04:31;;;;;;;82.37;76.77;;;;;;;15.81;80.71;100850.35;1829560;78;25358;-47
2023/08/11 06:06:58;;;;;;;83.87;77.97;;;;;;;15.94;80.32;100858.86;1829705;77;25520;-50
2023/08/11 06:09:25;;;;;;;87.70;81.28;;;;;;;;;;1829755;78;25287;-49
2023/08/11 06:11:52;;;;;;;35.00;31.82;;;;;;;;;;1829767;78;29591;-48
2023/08/11 06:14:19;;;;;;;13.28;8.43;;;;;;;;;;1829688;78;25290;-48
2023/08/11 06:16:46;;;;;;;83.80;78.20;;;;;;;;;;1829788;77;25456;-47
2023/08/11 06:19:13;;;;;;;15.32;14.13;;;;;;;;;;1829747;78;26144;-47
2023/08/11 06:21:41;;;;;;;52.53;48.60;;;;;;;;;;1829660;78;25433;-50
2023/08/11 06:24:09;;;;;;;19.70;18.52;;;;;;;;;;1829791;78;27368;-48
2023/08/11 06:26:35;;;;;;;58.02;54.00;;;;;;;;;;1829669;78;25498;-49
2023/08/11 06:29:04;;;;;;;7.35;6.97;;;;;;;;;;1829695;78;25259;-50
2023/08/11 06:31:31;;;;;;;9.15;8.73;;;;;;;;;;1829697;78;25549;-47
2023/08/11 06:33:58;;;;;;;16.10;15.23;;;;;;;;;;1813660;78;25471;-49
2023/08/11 06:36:25;;;;;;;9.83;8.83;;;;;;;;;;1829719;78;27412;-49
2023/08/11 06:38:52;;;;;;;9.45;5.70;;;;;;;;;;1829670;77;25433;-49
2023/08/11 06:41:19;;;;;;;80.65;75.42;;;;;;;;;;1829730;78;25267;-49
2023/08/11 06:43:47;;;;;;;83.55;77.87;;;;;;;;;;1829739;78;25520;-51
2023/08/11 06:46:15;;;;;;;;;;;;;;;;;;1832475;78;25301;-49
2023/08/11 06:48:42;;;;;;;77.80;72.75;;;;;;;;;;1829925;78;27376;-48
2023/08/11 06:51:09;;;;;;;75.55;70.67;;;;;;;;;;1829663;78;25288;-51
2023/08/11 06:53:36;;;;;;;12.53;11.90;;;;;;;;;;1829746;78;25312;-52
2023/08/11 06:56:03;;;;;;;11.28;10.68;;;;;;;;;;1829903;78;25565;-49
2023/08/11 07:00:45;;;;;;;20.27;19.30;;;;;;;20.13;69.67;100902.52;1905438;74;25860;-48
2023/08/11 21:56:01;;;;;;;8.05;5.08;;;;;;;14.45;57.93;100925.77;1867846;76;27359;-51
2023/08/11 21:58:27;;;;;;;17.12;15.05;;;;;;;14.37;57.91;100931.46;1824616;78;25375;-53
2023/08/11 22:00:53;;;;;;;10.40;6.08;;;;;;;14.32;58.08;100930.23;1824431;78;29610;-52
2023/08/11 22:03:19;;;;;;;12.10;5.67;;;;;;;14.24;58.26;100929.68;1824381;78;25423;-53
2023/08/11 22:05:45;;;;;;;80.40;73.85;;;;;;;14.16;58.43;100930.69;1824455;78;25584;-50
2023/08/11 22:08:11;;;;;;;16.67;15.80;;;;;;;;;;1824465;78;25398;-55
2023/08/11 22:10:37;;;;;;;7.97;7.53;;;;;;;;;;1824518;78;25371;-50
2023/08/11 22:13:04;;;;;;;10.17;9.57;;;;;;;;;;1824446;78;32175;-50
2023/08/11 22:15:30;;;;;;;9.38;5.70;;;;;;;;;;1824368;78;25442;-53
2023/08/11 22:17:56;;;;;;;7.50;5.53;;;;;;;;;;1824493;78;25469;-55
2023/08/11 22:20:22;;;;;;;79.67;74.20;;;;;;;;;;1824442;78;25395;-52
2023/08/11 22:22:48;;;;;;;30.02;27.90;;;;;;;;;;1803979;78;25588;-53
2023/08/11 22:25:18;;;;;;;3.87;3.77;;;;;;;;;;1824414;78;27403;-50
2023/08/11 22:27:45;;;;;;;2.75;2.65;;;;;;;;;;1824043;78;25611;-52
2023/08/11 22:30:14;;;;;;;10.10;9.70;;;;;;;;;;1824512;78;25437;-51
